sensor_id;sensor_type;location;lat;lon;timestamp;P1;durP1;ratioP1;P2;durP2;ratioP2
823;SDS011;373;49.342;8.146;2022-10-20T00:02:23;12.38;;;11.07;;
823;SDS011;373;49.342;8.146;2022-10-20T00:04:51;15.77;;;12.85;;
823;SDS011;373;49.342;8.146;2022-10-20T00:07:18;13.95;;;12.38;;
823;SDS011;373;49.342;8.146;2022-10-20T00:09:46;15.70;;;12.52;;
823;SDS011;373;49.342;8.146;2022-10-20T00:12:13;13.48;;;12.07;;
823;SDS011;373;49.342;8.146;2022-10-20T00:14:40;16.13;;;13.35;;
823;SDS011;373;49.342;8.146;2022-10-20T00:17:07;14.43;;;12.98;;
823;SDS011;373;49.342;8.146;2022-10-20T00:19:34;13.15;;;11.75;;
823;SDS011;373;49.342;8.146;2022-10-20T00:22:01;15.70;;;13.05;;
823;SDS011;373;49.342;8.146;2022-10-20T00:24:28;14.73;;;11.75;;
823;SDS011;373;49.342;8.146;2022-10-20T00:26:57;17.25;;;13.95;;
823;SDS011;373;49.342;8.146;2022-10-20T00:29:35;15.95;;;12.85;;
823;SDS011;373;49.342;8.146;2022-10-20T00:32:06;15.30;;;12.35;;
823;SDS011;373;49.342;8.146;2022-10-20T00:34:33;14.77;;;12.38;;
823;SDS011;373;49.342;8.146;2022-10-20T00:37:00;13.43;;;12.02;;
823;SDS011;373;49.342;8.146;2022-10-20T03:54:50;12.27;;;10.98;;
823;SDS011;373;49.342;8.146;2022-10-20T03:57:21;12.18;;;10.88;;
823;SDS011;373;49.342;8.146;2022-10-20T03:59:51;10.48;;;9.35;;
823;SDS011;373;49.342;8.146;2022-10-20T04:02:21;10.65;;;9.55;;
823;SDS011;373;49.342;8.146;2022-10-20T04:04:54;11.10;;;10.00;;
823;SDS011;373;49.342;8.146;2022-10-20T04:07:27;12.23;;;10.88;;
823;SDS011;373;49.342;8.146;2022-10-20T04:10:05;13.23;;;10.68;;
823;SDS011;373;49.342;8.146;2022-10-20T04:12:35;11.85;;;10.30;;
823;SDS011;373;49.342;8.146;2022-10-20T04:15:03;11.35;;;10.18;;
823;SDS011;373;49.342;8.146;2022-10-20T04:17:36;10.82;;;9.73;;
823;SDS011;373;49.342;8.146;2022-10-20T04:20:07;10.80;;;9.63;;
823;SDS011;373;49.342;8.146;2022-10-20T04:22:34;12.38;;;9.85;;
823;SDS011;373;49.342;8.146;2022-10-20T04:25:04;11.90;;;10.23;;
823;SDS011;373;49.342;8.146;2022-10-20T04:27:33;10.88;;;9.82;;
823;SDS011;373;49.342;8.146;2022-10-20T04:30:05;10.80;;;9.73;;
823;SDS011;373;49.342;8.146;2022-10-20T04:32:46;11.48;;;10.27;;
823;SDS011;373;49.342;8.146;2022-10-20T04:35:38;10.35;;;9.35;;
823;SDS011;373;49.342;8.146;2022-10-20T04:38:15;10.40;;;9.35;;
823;SDS011;373;49.342;8.146;2022-10-20T04:40:56;9.52;;;8.52;;
823;SDS011;373;49.342;8.146;2022-10-20T04:43:25;11.88;;;10.02;;
823;SDS011;373;49.342;8.146;2022-10-20T04:45:52;10.77;;;9.65;;
823;SDS011;373;49.342;8.146;2022-10-20T04:48:22;9.98;;;9.05;;
823;SDS011;373;49.342;8.146;2022-10-20T04:50:58;11.32;;;9.82;;
823;SDS011;373;49.342;8.146;2022-10-20T04:53:25;11.80;;;9.85;;
823;SDS011;373;49.342;8.146;2022-10-20T04:55:53;11.52;;;9.27;;
823;SDS011;373;49.342;8.146;2022-10-20T04:58:31;10.88;;;9.85;;
823;SDS011;373;49.342;8.146;2022-10-20T05:01:00;13.13;;;10.75;;
823;SDS011;373;49.342;8.146;2022-10-20T05:03:32;12.23;;;10.05;;
823;SDS011;373;49.342;8.146;2022-10-20T05:06:07;13.02;;;10.85;;
823;SDS011;373;49.342;8.146;2022-10-20T05:08:51;11.77;;;10.57;;
823;SDS011;373;49.342;8.146;2022-10-20T05:11:20;11.52;;;10.32;;
823;SDS011;373;49.342;8.146;2022-10-20T05:13:50;17.73;;;15.88;;
823;SDS011;373;49.342;8.146;2022-10-20T05:16:24;12.00;;;10.75;;
823;SDS011;373;49.342;8.146;2022-10-20T05:18:54;14.98;;;11.57;;
823;SDS011;373;49.342;8.146;2022-10-20T05:21:23;11.82;;;10.73;;
823;SDS011;373;49.342;8.146;2022-10-20T05:23:53;12.00;;;10.75;;
823;SDS011;373;49.342;8.146;2022-10-20T05:26:25;12.48;;;10.65;;
823;SDS011;373;49.342;8.146;2022-10-20T05:29:23;12.25;;;11.07;;
823;SDS011;373;49.342;8.146;2022-10-20T05:32:04;12.15;;;10.95;;
823;SDS011;373;49.342;8.146;2022-10-20T05:34:49;13.13;;;11.73;;
823;SDS011;373;49.342;8.146;2022-10-20T05:37:28;12.95;;;10.98;;
823;SDS011;373;49.342;8.146;2022-10-20T05:40:47;14.88;;;11.93;;
823;SDS011;373;49.342;8.146;2022-10-20T05:43:32;15.02;;;11.52;;
823;SDS011;373;49.342;8.146;2022-10-20T05:46:11;13.07;;;11.75;;
823;SDS011;373;49.342;8.146;2022-10-20T05:48:42;12.55;;;11.40;;
823;SDS011;373;49.342;8.146;2022-10-20T05:51:10;12.98;;;11.77;;
823;SDS011;373;49.342;8.146;2022-10-20T05:53:58;12.50;;;11.20;;
823;SDS011;373;49.342;8.146;2022-10-20T05:56:46;13.40;;;12.10;;
823;SDS011;373;49.342;8.146;2022-10-20T05:59:16;14.23;;;12.27;;
823;SDS011;373;49.342;8.146;2022-10-20T06:01:46;13.55;;;11.88;;
823;SDS011;373;49.342;8.146;2022-10-20T06:04:21;14.27;;;12.38;;
823;SDS011;373;49.342;8.146;2022-10-20T06:06:57;15.93;;;12.15;;
823;SDS011;373;49.342;8.146;2022-10-20T06:09:26;13.73;;;11.10;;
823;SDS011;373;49.342;8.146;2022-10-20T06:12:04;14.95;;;12.30;;
823;SDS011;373;49.342;8.146;2022-10-20T06:14:32;14.32;;;12.52;;
823;SDS011;373;49.342;8.146;2022-10-20T06:17:01;13.20;;;11.80;;
823;SDS011;373;49.342;8.146;2022-10-20T06:19:28;15.63;;;12.60;;
823;SDS011;373;49.342;8.146;2022-10-20T06:21:55;14.63;;;12.60;;
823;SDS011;373;49.342;8.146;2022-10-20T06:24:22;14.23;;;11.73;;
823;SDS011;373;49.342;8.146;2022-10-20T06:27:09;12.38;;;11.07;;
823;SDS011;373;49.342;8.146;2022-10-20T06:29:45;13.80;;;12.23;;
823;SDS011;373;49.342;8.146;2022-10-20T06:32:34;12.63;;;11.25;;
823;SDS011;373;49.342;8.146;2022-10-20T06:35:26;15.02;;;12.65;;
823;SDS011;373;49.342;8.146;2022-10-20T06:38:38;13.93;;;12.00;;
823;SDS011;373;49.342;8.146;2022-10-20T06:41:47;12.00;;;10.63;;
823;SDS011;373;49.342;8.146;2022-10-20T06:44:53;13.13;;;10.25;;
823;SDS011;373;49.342;8.146;2022-10-20T06:47:21;12.50;;;10.65;;
823;SDS011;373;49.342;8.146;2022-10-20T06:49:51;11.52;;;10.38;;
823;SDS011;373;49.342;8.146;2022-10-20T06:53:08;12.15;;;11.05;;
823;SDS011;373;49.342;8.146;2022-10-20T06:56:04;14.63;;;10.73;;
823;SDS011;373;49.342;8.146;2022-10-20T06:58:32;14.27;;;12.25;;
823;SDS011;373;49.342;8.146;2022-10-20T07:01:02;19.08;;;13.18;;
823;SDS011;373;49.342;8.146;2022-10-20T07:03:34;13.73;;;12.32;;
823;SDS011;373;49.342;8.146;2022-10-20T07:06:59;13.82;;;11.73;;
823;SDS011;373;49.342;8.146;2022-10-20T07:09:34;12.32;;;10.68;;
823;SDS011;373;49.342;8.146;2022-10-20T07:12:17;12.27;;;10.98;;
823;SDS011;373;49.342;8.146;2022-10-20T07:15:01;15.13;;;11.45;;
823;SDS011;373;49.342;8.146;2022-10-20T07:17:46;12.75;;;11.48;;
823;SDS011;373;49.342;8.146;2022-10-20T07:20:38;13.55;;;11.10;;
823;SDS011;373;49.342;8.146;2022-10-20T07:23:30;14.30;;;12.00;;
823;SDS011;373;49.342;8.146;2022-10-20T07:26:12;12.52;;;10.85;;
823;SDS011;373;49.342;8.146;2022-10-20T07:29:28;12.27;;;10.70;;
823;SDS011;373;49.342;8.146;2022-10-20T07:32:09;11.40;;;10.30;;
823;SDS011;373;49.342;8.146;2022-10-20T07:34:39;12.07;;;10.75;;
823;SDS011;373;49.342;8.146;2022-10-20T07:37:30;11.75;;;10.55;;
823;SDS011;373;49.342;8.146;2022-10-20T07:47:58;11.18;;;9.60;;
823;SDS011;373;49.342;8.146;2022-10-20T07:51:02;11.77;;;10.57;;
823;SDS011;373;49.342;8.146;2022-10-20T07:53:59;12.02;;;10.88;;
823;SDS011;373;49.342;8.146;2022-10-20T07:56:28;16.63;;;10.95;;
823;SDS011;373;49.342;8.146;2022-10-20T07:58:58;12.52;;;11.23;;
823;SDS011;373;49.342;8.146;2022-10-20T08:01:26;12.60;;;11.40;;
823;SDS011;373;49.342;8.146;2022-10-20T08:03:53;11.98;;;10.88;;
823;SDS011;373;49.342;8.146;2022-10-20T08:06:21;11.65;;;10.55;;
823;SDS011;373;49.342;8.146;2022-10-20T08:22:42;11.85;;;10.25;;
823;SDS011;373;49.342;8.146;2022-10-20T08:25:09;11.43;;;9.95;;
823;SDS011;373;49.342;8.146;2022-10-20T08:27:39;12.65;;;11.23;;
823;SDS011;373;49.342;8.146;2022-10-20T08:30:06;11.05;;;9.35;;
823;SDS011;373;49.342;8.146;2022-10-20T08:32:34;11.38;;;10.30;;
823;SDS011;373;49.342;8.146;2022-10-20T08:35:02;12.52;;;9.52;;
823;SDS011;373;49.342;8.146;2022-10-20T08:37:29;13.00;;;11.70;;
823;SDS011;373;49.342;8.146;2022-10-20T08:39:58;12.10;;;10.90;;
823;SDS011;373;49.342;8.146;2022-10-20T08:42:25;13.38;;;11.63;;
823;SDS011;373;49.342;8.146;2022-10-20T08:44:53;13.07;;;11.43;;
823;SDS011;373;49.342;8.146;2022-10-20T08:47:24;12.27;;;11.13;;
823;SDS011;373;49.342;8.146;2022-10-20T08:49:55;11.73;;;10.38;;
823;SDS011;373;49.342;8.146;2022-10-20T08:52:23;12.70;;;11.10;;
823;SDS011;373;49.342;8.146;2022-10-20T08:54:53;13.13;;;11.38;;
823;SDS011;373;49.342;8.146;2022-10-20T08:57:25;12.93;;;11.68;;
823;SDS011;373;49.342;8.146;2022-10-20T09:00:06;12.93;;;11.60;;
823;SDS011;373;49.342;8.146;2022-10-20T09:02:40;12.77;;;11.52;;
823;SDS011;373;49.342;8.146;2022-10-20T09:05:08;13.05;;;11.43;;
823;SDS011;373;49.342;8.146;2022-10-20T09:07:38;13.23;;;11.10;;
823;SDS011;373;49.342;8.146;2022-10-20T09:10:08;12.57;;;10.57;;
823;SDS011;373;49.342;8.146;2022-10-20T09:12:45;12.75;;;11.43;;
823;SDS011;373;49.342;8.146;2022-10-20T09:15:15;12.27;;;10.95;;
823;SDS011;373;49.342;8.146;2022-10-20T09:17:44;11.95;;;10.75;;
823;SDS011;373;49.342;8.146;2022-10-20T09:20:16;12.25;;;11.13;;
823;SDS011;373;49.342;8.146;2022-10-20T09:22:48;12.20;;;10.68;;
823;SDS011;373;49.342;8.146;2022-10-20T09:25:22;12.88;;;11.40;;
823;SDS011;373;49.342;8.146;2022-10-20T09:28:03;13.77;;;11.73;;
823;SDS011;373;49.342;8.146;2022-10-20T09:30:33;13.77;;;12.45;;
823;SDS011;373;49.342;8.146;2022-10-20T09:33:00;14.68;;;12.75;;
823;SDS011;373;49.342;8.146;2022-10-20T09:35:48;13.85;;;12.35;;
823;SDS011;373;49.342;8.146;2022-10-20T09:38:17;15.35;;;12.55;;
823;SDS011;373;49.342;8.146;2022-10-20T09:40:56;13.98;;;12.55;;
823;SDS011;373;49.342;8.146;2022-10-20T09:43:33;17.10;;;14.23;;
823;SDS011;373;49.342;8.146;2022-10-20T09:46:16;14.57;;;11.98;;
823;SDS011;373;49.342;8.146;2022-10-20T09:48:47;12.93;;;11.63;;
823;SDS011;373;49.342;8.146;2022-10-20T09:51:15;13.43;;;11.38;;
823;SDS011;373;49.342;8.146;2022-10-20T09:53:48;13.27;;;11.95;;
823;SDS011;373;49.342;8.146;2022-10-20T09:56:23;13.95;;;12.45;;
823;SDS011;373;49.342;8.146;2022-10-20T09:58:53;13.68;;;12.27;;
823;SDS011;373;49.342;8.146;2022-10-20T10:01:21;14.63;;;13.13;;
823;SDS011;373;49.342;8.146;2022-10-20T10:03:49;14.35;;;12.88;;
823;SDS011;373;49.342;8.146;2022-10-20T10:06:25;15.93;;;12.57;;
823;SDS011;373;49.342;8.146;2022-10-20T10:08:55;14.20;;;12.50;;
823;SDS011;373;49.342;8.146;2022-10-20T10:11:24;15.25;;;13.57;;
823;SDS011;373;49.342;8.146;2022-10-20T10:13:58;14.18;;;12.55;;
823;SDS011;373;49.342;8.146;2022-10-20T10:16:25;14.43;;;12.80;;
823;SDS011;373;49.342;8.146;2022-10-20T10:18:54;15.98;;;13.18;;
823;SDS011;373;49.342;8.146;2022-10-20T10:21:26;13.50;;;12.10;;
823;SDS011;373;49.342;8.146;2022-10-20T10:23:54;12.75;;;11.45;;
823;SDS011;373;49.342;8.146;2022-10-20T10:29:24;13.25;;;11.85;;
823;SDS011;373;49.342;8.146;2022-10-20T10:31:57;13.75;;;12.30;;
823;SDS011;373;49.342;8.146;2022-10-20T10:34:31;13.88;;;12.02;;
823;SDS011;373;49.342;8.146;2022-10-20T10:37:16;14.23;;;12.43;;
823;SDS011;373;49.342;8.146;2022-10-20T10:39:43;14.70;;;13.15;;
823;SDS011;373;49.342;8.146;2022-10-20T10:42:16;14.32;;;12.90;;
823;SDS011;373;49.342;8.146;2022-10-20T10:45:04;15.02;;;12.88;;
823;SDS011;373;49.342;8.146;2022-10-20T10:47:47;16.13;;;14.43;;
823;SDS011;373;49.342;8.146;2022-10-20T10:50:25;15.80;;;13.85;;
823;SDS011;373;49.342;8.146;2022-10-20T10:52:58;19.48;;;13.85;;
823;SDS011;373;49.342;8.146;2022-10-20T10:55:39;15.85;;;14.25;;
823;SDS011;373;49.342;8.146;2022-10-20T10:58:15;15.55;;;13.85;;
823;SDS011;373;49.342;8.146;2022-10-20T11:00:53;15.43;;;13.05;;
823;SDS011;373;49.342;8.146;2022-10-20T11:03:33;20.60;;;14.60;;
823;SDS011;373;49.342;8.146;2022-10-20T11:06:12;17.63;;;13.10;;
823;SDS011;373;49.342;8.146;2022-10-20T11:08:50;14.30;;;12.80;;
823;SDS011;373;49.342;8.146;2022-10-20T11:11:40;14.40;;;12.80;;
823;SDS011;373;49.342;8.146;2022-10-20T11:14:17;14.98;;;13.57;;
823;SDS011;373;49.342;8.146;2022-10-20T11:17:00;13.77;;;12.32;;
823;SDS011;373;49.342;8.146;2022-10-20T11:22:37;14.27;;;12.63;;
823;SDS011;373;49.342;8.146;2022-10-20T11:25:13;17.60;;;13.43;;
823;SDS011;373;49.342;8.146;2022-10-20T11:27:50;14.68;;;13.18;;
823;SDS011;373;49.342;8.146;2022-10-20T11:30:18;14.50;;;12.45;;
823;SDS011;373;49.342;8.146;2022-10-20T11:32:50;16.05;;;14.13;;
823;SDS011;373;49.342;8.146;2022-10-20T11:35:26;15.82;;;13.27;;
823;SDS011;373;49.342;8.146;2022-10-20T11:38:06;14.43;;;12.65;;
823;SDS011;373;49.342;8.146;2022-10-20T11:40:42;14.77;;;12.68;;
823;SDS011;373;49.342;8.146;2022-10-20T11:43:15;13.77;;;12.32;;
823;SDS011;373;49.342;8.146;2022-10-20T11:45:47;15.57;;;13.05;;
823;SDS011;373;49.342;8.146;2022-10-20T11:48:19;15.05;;;13.45;;
823;SDS011;373;49.342;8.146;2022-10-20T11:51:04;14.05;;;12.50;;
823;SDS011;373;49.342;8.146;2022-10-20T11:53:47;13.52;;;10.82;;
823;SDS011;373;49.342;8.146;2022-10-20T11:59:42;14.70;;;11.68;;
823;SDS011;373;49.342;8.146;2022-10-20T12:06:13;12.13;;;10.85;;
823;SDS011;373;49.342;8.146;2022-10-20T12:08:56;13.15;;;10.77;;
823;SDS011;373;49.342;8.146;2022-10-20T12:11:40;12.52;;;11.23;;
823;SDS011;373;49.342;8.146;2022-10-20T12:14:17;13.85;;;12.38;;
823;SDS011;373;49.342;8.146;2022-10-20T12:17:03;12.43;;;11.13;;
823;SDS011;373;49.342;8.146;2022-10-20T12:19:51;16.42;;;11.38;;
823;SDS011;373;49.342;8.146;2022-10-20T12:22:41;12.35;;;11.10;;
823;SDS011;373;49.342;8.146;2022-10-20T12:25:17;12.43;;;11.05;;
823;SDS011;373;49.342;8.146;2022-10-20T12:30:58;13.45;;;12.05;;
823;SDS011;373;49.342;8.146;2022-10-20T12:33:33;15.32;;;11.43;;
823;SDS011;373;49.342;8.146;2022-10-20T12:36:29;14.65;;;12.50;;
823;SDS011;373;49.342;8.146;2022-10-20T12:41:54;13.35;;;12.02;;
823;SDS011;373;49.342;8.146;2022-10-20T12:44:24;12.95;;;11.55;;
823;SDS011;373;49.342;8.146;2022-10-20T12:46:54;14.13;;;11.38;;
823;SDS011;373;49.342;8.146;2022-10-20T12:49:26;13.88;;;11.25;;
823;SDS011;373;49.342;8.146;2022-10-20T12:51:57;12.43;;;11.20;;
823;SDS011;373;49.342;8.146;2022-10-20T12:54:28;13.52;;;12.13;;
823;SDS011;373;49.342;8.146;2022-10-20T12:57:01;15.25;;;12.00;;
823;SDS011;373;49.342;8.146;2022-10-20T12:59:35;12.25;;;10.98;;
823;SDS011;373;49.342;8.146;2022-10-20T13:08:19;12.35;;;11.07;;
823;SDS011;373;49.342;8.146;2022-10-20T13:10:52;13.50;;;11.60;;
823;SDS011;373;49.342;8.146;2022-10-20T13:16:22;12.52;;;11.25;;
823;SDS011;373;49.342;8.146;2022-10-20T13:18:50;13.25;;;11.13;;
823;SDS011;373;49.342;8.146;2022-10-20T13:21:26;12.02;;;10.82;;
823;SDS011;373;49.342;8.146;2022-10-20T13:24:04;12.00;;;10.80;;
823;SDS011;373;49.342;8.146;2022-10-20T13:26:45;11.60;;;10.40;;
823;SDS011;373;49.342;8.146;2022-10-20T13:29:17;12.38;;;11.07;;
823;SDS011;373;49.342;8.146;2022-10-20T13:31:57;13.27;;;11.98;;
823;SDS011;373;49.342;8.146;2022-10-20T13:34:36;12.32;;;11.02;;
823;SDS011;373;49.342;8.146;2022-10-20T13:37:10;13.73;;;12.32;;
823;SDS011;373;49.342;8.146;2022-10-20T13:39:51;18.58;;;16.85;;
823;SDS011;373;49.342;8.146;2022-10-20T13:42:31;12.63;;;11.48;;
823;SDS011;373;49.342;8.146;2022-10-20T13:45:10;13.85;;;12.50;;
823;SDS011;373;49.342;8.146;2022-10-20T13:47:47;13.50;;;12.07;;
823;SDS011;373;49.342;8.146;2022-10-20T13:50:17;14.68;;;12.55;;
823;SDS011;373;49.342;8.146;2022-10-20T13:52:48;15.50;;;13.10;;
823;SDS011;373;49.342;8.146;2022-10-20T13:55:20;15.43;;;13.57;;
823;SDS011;373;49.342;8.146;2022-10-20T13:57:50;15.63;;;13.32;;
823;SDS011;373;49.342;8.146;2022-10-20T14:00:20;14.93;;;13.40;;
823;SDS011;373;49.342;8.146;2022-10-20T14:02:53;17.20;;;12.93;;
823;SDS011;373;49.342;8.146;2022-10-20T14:05:22;16.20;;;13.50;;
823;SDS011;373;49.342;8.146;2022-10-20T14:07:50;14.90;;;13.35;;
823;SDS011;373;49.342;8.146;2022-10-20T14:10:23;18.40;;;13.55;;
823;SDS011;373;49.342;8.146;2022-10-20T14:12:53;13.43;;;12.02;;
823;SDS011;373;49.342;8.146;2022-10-20T14:15:28;15.15;;;13.60;;
823;SDS011;373;49.342;8.146;2022-10-20T14:17:58;14.27;;;12.88;;
823;SDS011;373;49.342;8.146;2022-10-20T14:20:28;14.30;;;12.80;;
823;SDS011;373;49.342;8.146;2022-10-20T14:22:57;15.60;;;13.75;;
823;SDS011;373;49.342;8.146;2022-10-20T14:25:27;14.00;;;12.18;;
823;SDS011;373;49.342;8.146;2022-10-20T14:27:55;12.70;;;11.50;;
823;SDS011;373;49.342;8.146;2022-10-20T14:30:23;11.73;;;10.63;;
823;SDS011;373;49.342;8.146;2022-10-20T14:32:51;13.40;;;12.10;;
823;SDS011;373;49.342;8.146;2022-10-20T14:35:23;11.88;;;10.73;;
823;SDS011;373;49.342;8.146;2022-10-20T14:37:57;14.82;;;12.02;;
823;SDS011;373;49.342;8.146;2022-10-20T14:40:29;12.90;;;11.73;;
823;SDS011;373;49.342;8.146;2022-10-20T14:42:59;15.50;;;11.90;;
823;SDS011;373;49.342;8.146;2022-10-20T14:45:28;13.48;;;11.25;;
823;SDS011;373;49.342;8.146;2022-10-20T14:47:56;11.98;;;10.30;;
823;SDS011;373;49.342;8.146;2022-10-20T14:50:26;11.48;;;10.30;;
823;SDS011;373;49.342;8.146;2022-10-20T14:55:45;14.88;;;10.98;;
823;SDS011;373;49.342;8.146;2022-10-20T14:58:26;12.85;;;10.32;;
823;SDS011;373;49.342;8.146;2022-10-20T15:01:17;11.85;;;10.60;;
823;SDS011;373;49.342;8.146;2022-10-20T15:04:01;10.18;;;9.20;;
823;SDS011;373;49.342;8.146;2022-10-20T15:06:29;12.13;;;10.10;;
823;SDS011;373;49.342;8.146;2022-10-20T15:08:56;12.90;;;11.27;;
823;SDS011;373;49.342;8.146;2022-10-20T15:11:25;11.80;;;10.27;;
823;SDS011;373;49.342;8.146;2022-10-20T15:13:55;13.38;;;11.27;;
823;SDS011;373;49.342;8.146;2022-10-20T15:16:31;14.48;;;12.95;;
823;SDS011;373;49.342;8.146;2022-10-20T15:19:12;16.10;;;14.50;;
823;SDS011;373;49.342;8.146;2022-10-20T15:21:52;17.58;;;15.70;;
823;SDS011;373;49.342;8.146;2022-10-20T15:24:35;14.50;;;13.10;;
823;SDS011;373;49.342;8.146;2022-10-20T15:27:04;13.18;;;11.85;;
823;SDS011;373;49.342;8.146;2022-10-20T15:29:32;12.95;;;11.73;;
823;SDS011;373;49.342;8.146;2022-10-20T15:31:59;14.88;;;10.85;;
823;SDS011;373;49.342;8.146;2022-10-20T15:34:26;11.98;;;10.77;;
823;SDS011;373;49.342;8.146;2022-10-20T15:36:53;12.43;;;10.85;;
823;SDS011;373;49.342;8.146;2022-10-20T15:39:20;12.73;;;11.38;;
823;SDS011;373;49.342;8.146;2022-10-20T15:41:47;12.43;;;11.23;;
823;SDS011;373;49.342;8.146;2022-10-20T15:44:16;12.10;;;10.90;;
823;SDS011;373;49.342;8.146;2022-10-20T15:46:46;16.10;;;14.50;;
823;SDS011;373;49.342;8.146;2022-10-20T15:49:14;13.85;;;12.45;;
823;SDS011;373;49.342;8.146;2022-10-20T15:51:42;12.25;;;11.05;;
823;SDS011;373;49.342;8.146;2022-10-20T15:54:11;11.95;;;10.85;;
823;SDS011;373;49.342;8.146;2022-10-20T15:56:40;12.23;;;11.00;;
823;SDS011;373;49.342;8.146;2022-10-20T15:59:07;12.32;;;11.13;;
823;SDS011;373;49.342;8.146;2022-10-20T16:01:35;13.13;;;11.80;;
823;SDS011;373;49.342;8.146;2022-10-20T16:04:05;12.10;;;10.88;;
823;SDS011;373;49.342;8.146;2022-10-20T16:06:41;12.63;;;11.45;;
823;SDS011;373;49.342;8.146;2022-10-20T16:09:08;14.52;;;12.55;;
823;SDS011;373;49.342;8.146;2022-10-20T16:11:35;17.15;;;14.75;;
823;SDS011;373;49.342;8.146;2022-10-20T16:14:02;17.42;;;15.73;;
823;SDS011;373;49.342;8.146;2022-10-20T16:16:30;16.92;;;15.23;;
823;SDS011;373;49.342;8.146;2022-10-20T16:18:58;15.98;;;14.48;;
823;SDS011;373;49.342;8.146;2022-10-20T16:21:26;16.58;;;14.85;;
823;SDS011;373;49.342;8.146;2022-10-20T16:23:53;14.02;;;12.52;;
823;SDS011;373;49.342;8.146;2022-10-20T16:26:20;18.63;;;12.48;;
823;SDS011;373;49.342;8.146;2022-10-20T16:28:47;14.70;;;12.88;;
823;SDS011;373;49.342;8.146;2022-10-20T16:31:14;15.27;;;11.68;;
823;SDS011;373;49.342;8.146;2022-10-20T16:33:42;13.57;;;12.07;;
823;SDS011;373;49.342;8.146;2022-10-20T16:36:11;15.02;;;13.43;;
823;SDS011;373;49.342;8.146;2022-10-20T16:38:40;13.15;;;11.75;;
823;SDS011;373;49.342;8.146;2022-10-20T16:41:08;13.15;;;11.85;;
823;SDS011;373;49.342;8.146;2022-10-20T16:43:37;13.13;;;11.82;;
823;SDS011;373;49.342;8.146;2022-10-20T16:46:05;14.43;;;12.95;;
823;SDS011;373;49.342;8.146;2022-10-20T16:48:33;13.32;;;12.02;;
823;SDS011;373;49.342;8.146;2022-10-20T16:51:02;13.82;;;12.38;;
823;SDS011;373;49.342;8.146;2022-10-20T16:53:32;15.15;;;13.20;;
823;SDS011;373;49.342;8.146;2022-10-20T16:55:59;15.13;;;13.63;;
823;SDS011;373;49.342;8.146;2022-10-20T16:58:26;17.10;;;13.57;;
823;SDS011;373;49.342;8.146;2022-10-20T17:01:01;16.55;;;14.85;;
823;SDS011;373;49.342;8.146;2022-10-20T17:03:30;15.88;;;13.93;;
823;SDS011;373;49.342;8.146;2022-10-20T17:05:58;14.98;;;13.25;;
823;SDS011;373;49.342;8.146;2022-10-20T17:08:27;16.15;;;14.35;;
823;SDS011;373;49.342;8.146;2022-10-20T17:10:58;16.25;;;14.57;;
823;SDS011;373;49.342;8.146;2022-10-20T17:13:27;15.88;;;14.38;;
823;SDS011;373;49.342;8.146;2022-10-20T17:15:55;15.70;;;13.75;;
823;SDS011;373;49.342;8.146;2022-10-20T17:18:28;15.40;;;13.82;;
823;SDS011;373;49.342;8.146;2022-10-20T17:20:55;14.75;;;13.13;;
823;SDS011;373;49.342;8.146;2022-10-20T17:23:22;16.33;;;13.98;;
823;SDS011;373;49.342;8.146;2022-10-20T17:25:50;15.77;;;14.23;;
823;SDS011;373;49.342;8.146;2022-10-20T17:28:19;19.67;;;17.67;;
823;SDS011;373;49.342;8.146;2022-10-20T17:30:46;18.90;;;16.35;;
823;SDS011;373;49.342;8.146;2022-10-20T17:33:13;17.70;;;15.82;;
823;SDS011;373;49.342;8.146;2022-10-20T17:35:43;17.98;;;16.17;;
823;SDS011;373;49.342;8.146;2022-10-20T17:38:12;17.00;;;15.27;;
823;SDS011;373;49.342;8.146;2022-10-20T17:40:39;18.40;;;16.23;;
823;SDS011;373;49.342;8.146;2022-10-20T17:43:07;17.55;;;15.57;;
823;SDS011;373;49.342;8.146;2022-10-20T17:45:35;19.65;;;17.40;;
823;SDS011;373;49.342;8.146;2022-10-20T17:48:02;19.60;;;17.50;;
823;SDS011;373;49.342;8.146;2022-10-20T17:50:30;18.48;;;16.67;;
823;SDS011;373;49.342;8.146;2022-10-20T17:52:57;19.67;;;17.67;;
823;SDS011;373;49.342;8.146;2022-10-20T17:55:25;20.80;;;18.80;;
823;SDS011;373;49.342;8.146;2022-10-20T17:57:52;22.00;;;19.70;;
823;SDS011;373;49.342;8.146;2022-10-20T18:00:19;19.88;;;17.85;;
823;SDS011;373;49.342;8.146;2022-10-20T18:02:48;19.33;;;17.48;;
823;SDS011;373;49.342;8.146;2022-10-20T18:05:16;17.73;;;16.13;;
823;SDS011;373;49.342;8.146;2022-10-20T18:07:44;17.70;;;15.73;;
823;SDS011;373;49.342;8.146;2022-10-20T18:10:11;18.48;;;16.55;;
823;SDS011;373;49.342;8.146;2022-10-20T18:12:38;16.58;;;14.98;;
823;SDS011;373;49.342;8.146;2022-10-20T18:15:05;15.98;;;14.43;;
823;SDS011;373;49.342;8.146;2022-10-20T18:17:33;17.30;;;15.63;;
823;SDS011;373;49.342;8.146;2022-10-20T18:20:02;15.43;;;13.75;;
823;SDS011;373;49.342;8.146;2022-10-20T18:22:30;17.45;;;15.63;;
823;SDS011;373;49.342;8.146;2022-10-20T18:24:57;20.63;;;17.08;;
823;SDS011;373;49.342;8.146;2022-10-20T18:27:24;17.70;;;15.90;;
823;SDS011;373;49.342;8.146;2022-10-20T18:29:51;19.23;;;17.30;;
823;SDS011;373;49.342;8.146;2022-10-20T18:32:18;19.23;;;17.27;;
823;SDS011;373;49.342;8.146;2022-10-20T18:34:45;23.33;;;20.95;;
823;SDS011;373;49.342;8.146;2022-10-20T18:37:13;22.98;;;20.67;;
823;SDS011;373;49.342;8.146;2022-10-20T18:39:42;21.90;;;19.58;;
823;SDS011;373;49.342;8.146;2022-10-20T18:42:09;18.55;;;16.83;;
823;SDS011;373;49.342;8.146;2022-10-20T18:44:36;19.02;;;17.17;;
823;SDS011;373;49.342;8.146;2022-10-20T18:47:04;23.38;;;20.83;;
823;SDS011;373;49.342;8.146;2022-10-20T18:49:31;23.23;;;20.75;;
823;SDS011;373;49.342;8.146;2022-10-20T18:51:58;22.52;;;19.23;;
823;SDS011;373;49.342;8.146;2022-10-20T18:54:28;21.60;;;19.05;;
823;SDS011;373;49.342;8.146;2022-10-20T18:56:55;22.77;;;19.75;;
823;SDS011;373;49.342;8.146;2022-10-20T18:59:22;21.40;;;17.30;;
823;SDS011;373;49.342;8.146;2022-10-20T19:01:49;19.85;;;17.05;;
823;SDS011;373;49.342;8.146;2022-10-20T19:04:16;17.15;;;15.38;;
823;SDS011;373;49.342;8.146;2022-10-20T19:06:44;21.25;;;19.02;;
823;SDS011;373;49.342;8.146;2022-10-20T19:09:13;19.33;;;17.27;;
823;SDS011;373;49.342;8.146;2022-10-20T19:11:46;19.02;;;17.13;;
823;SDS011;373;49.342;8.146;2022-10-20T19:14:14;19.30;;;17.42;;
823;SDS011;373;49.342;8.146;2022-10-20T19:16:42;19.42;;;16.92;;
823;SDS011;373;49.342;8.146;2022-10-20T19:19:10;18.05;;;16.20;;
823;SDS011;373;49.342;8.146;2022-10-20T19:21:38;19.20;;;17.25;;
823;SDS011;373;49.342;8.146;2022-10-20T19:24:05;18.48;;;16.58;;
823;SDS011;373;49.342;8.146;2022-10-20T19:26:34;18.33;;;16.42;;
823;SDS011;373;49.342;8.146;2022-10-20T19:29:06;23.20;;;19.08;;
823;SDS011;373;49.342;8.146;2022-10-20T19:31:37;19.20;;;17.27;;
823;SDS011;373;49.342;8.146;2022-10-20T19:34:06;20.52;;;18.50;;
823;SDS011;373;49.342;8.146;2022-10-20T19:36:34;19.85;;;17.42;;
823;SDS011;373;49.342;8.146;2022-10-20T19:39:03;20.67;;;18.67;;
823;SDS011;373;49.342;8.146;2022-10-20T19:41:31;21.50;;;19.50;;
823;SDS011;373;49.342;8.146;2022-10-20T19:43:58;22.17;;;19.90;;
823;SDS011;373;49.342;8.146;2022-10-20T19:46:28;22.83;;;20.42;;
823;SDS011;373;49.342;8.146;2022-10-20T19:48:55;22.98;;;20.65;;
823;SDS011;373;49.342;8.146;2022-10-20T19:51:22;23.92;;;21.50;;
823;SDS011;373;49.342;8.146;2022-10-20T19:53:49;23.45;;;21.15;;
823;SDS011;373;49.342;8.146;2022-10-20T19:56:17;21.65;;;19.52;;
823;SDS011;373;49.342;8.146;2022-10-20T19:58:44;21.25;;;19.10;;
823;SDS011;373;49.342;8.146;2022-10-20T20:01:13;21.85;;;19.55;;
823;SDS011;373;49.342;8.146;2022-10-20T20:03:42;21.80;;;19.55;;